Hidden Valley, Valles Caldera, New Mexico Weather observations

Data are for 10 minute period ending at time listed.
 Day   Time   Solar   Ave.   Ave.  Ave.  Vector  Max.   Baro.   Total    
  of    of     Rad.   Air    Rel.  Wind   Wind   Wind  Press.  Precip.   
Year   Day            Temp.  Hum.  Speed  Dir.   Gust                    
2026   (MST)  Kw/m2    F      %     mph   deg.    mph    mb.     in.     
-------------------------------------------------------------------------
 246   16:30   -8190.00   70.4    -2    2.6   208     4.1     0.0    0.01 
 246   16:40   -8190.00   69.9    -2    1.8   212     3.0     0.0    0.01 
 246   16:50   -8190.00   70.1    -2    2.3   229     5.8     0.0    0.01 
 246   17:00   -8190.00   69.9    -2    2.6   226     6.8     0.0    0.01 
 246   17:10   -8190.00   69.2    -2    2.9   220     5.5     0.0    0.01 
 246   17:20   -8190.00   68.8    -2    1.9   222     4.0     0.0    0.01 
 246   17:30   -8190.00   68.5    -2    2.3   209     3.8     0.0    0.01 
 246   17:40   -8190.00   68.2    -2    2.1   210     4.4     0.0    0.01 
 246   17:50   -8190.00   67.8    -2    2.4   249     6.7     0.0    0.01 
 246   18:00   -8190.00   66.9    -2    2.0   241     4.9     0.0    0.01 
 246   18:10   -8190.00   66.2    -2    3.6   217     8.0     0.0    0.01 
 246   18:20   -8190.00   64.3    -3    4.0   227     7.4     0.0    0.01 
 246   18:30   -8190.00   62.7    -3    3.2   233    10.1     0.0    0.01 
 246   18:40   -8190.00   59.2    -1    4.1   241     8.6     0.0    0.01 
 246   18:50   -8190.00   57.6    15    2.6   201     4.9     0.0    0.01 
 246   19:00   5.10   56.2    16    1.3   128     3.4     0.0    0.01 
 246   19:10   4.95   55.6    20    0.2   268     1.2     0.0    0.01 
 246   19:20   4.63   55.1    21    1.1   207     2.2     0.0    0.01 
 246   19:30   4.84   55.0    23    1.2   115     3.0     0.0    0.01 
 246   19:40   4.89   54.8    25    1.9    57     3.6     0.0    0.01 
 246   19:50   4.85   54.8    25    1.7    41     2.6     0.0    0.01 
 246   20:00   4.77   54.4    26    1.2    45     2.5     0.0    0.01 
 246   20:10   4.90   54.9    26    1.4   300     2.4     0.0    0.01 
 246   20:20   4.97   55.6    26    1.0   290     1.9     0.0    0.01 
 246   20:30   4.81   55.1    26    0.0     0     0.0     0.0    0.01 
 246   20:40   4.71   54.6    26    0.3   194     1.0     0.0    0.01 
 246   20:50   4.59   54.1    26    0.7    97     1.3     0.0    0.01 
 246   21:00   4.04   53.3    25    0.1    92     0.8     0.0    0.01 
 246   21:10   3.52   52.9    25    0.0    92     0.3     0.0    0.01 
 246   21:20   3.27   52.6    24    0.1    96     0.3     0.0    0.01 
 246   21:30   3.56   51.8    24    0.0     0     0.0     0.0    0.01 
 246   21:40   3.34   52.1    22    0.6   100     1.0     0.0    0.01 
 246   21:50   3.62   52.2    24    0.0     0     0.0     0.0    0.01 
 246   22:00   3.77   52.3    24    0.0    92     0.2     0.0    0.01 
 246   22:10   3.14   51.9    24    0.0    99     0.4     0.0    0.01 
 246   22:20   3.28   51.7    24    0.1    92     0.5     0.0    0.01 
 246   22:30   3.10   51.9    24    0.0     0     0.0     0.0    0.01 
 246   22:40   3.04   51.9    23    0.0     0     0.0     0.0    0.01 
 246   22:50   3.10   51.7    24    0.3    92     0.9     0.0    0.01 
 246   23:00   3.06   51.7    24    0.6    92     0.8     0.0    0.01 
 246   23:10   3.32   51.1    24    0.3    97     1.0     0.0    0.01 
 246   23:20   3.16   50.7    24    0.3   128     1.3     0.0    0.01 
 246   23:30   3.52   50.2    24    0.0   130     0.3     0.0    0.01 
 246   23:40   3.39   49.3    25    0.0     0     0.0     0.0    0.01 
 246   23:50   2.91   47.9    25    0.0     0     0.0     0.0    0.01 
 247    0:00   2.61   46.6    25    0.1   127     0.7     0.0    0.01 
 247    0:10   2.49   46.0    24    0.0     0     0.0     0.0    0.01 
 247    0:20   2.44   44.9    24    0.0     0     0.0     0.0    0.01 
 247    0:30   2.42   44.9    24    0.0     0     0.0     0.0    0.01 
 247    0:40   2.61   44.2    25    0.0     0     0.0     0.0    0.01 
 247    0:50   2.75   44.2    25    0.0     0     0.0     0.0    0.01 
 247    1:00   2.65   44.4    25    0.0     0     0.0     0.0    0.01 
 247    1:10   2.55   44.8    25    0.5    69     0.9     0.0    0.01 
 247    1:20   2.44   44.7    25    0.0    29     0.6     0.0    0.01 
 247    1:30   2.35   45.2    25    0.0     0     0.0     0.0    0.01 
 247    1:40   2.34   45.9    25    0.0     0     0.0     0.0    0.01 
 247    1:50   2.27   46.0    25    0.0     0     0.0     0.0    0.01 
 247    2:00   2.44   46.1    25    0.0     0     0.0     0.0    0.01 
 247    2:10   2.43   46.4    26    0.0     0     0.0     0.0    0.01 
 247    2:20   2.39   46.9    26    0.3    31     0.6     0.0    0.01 
 247    2:30   2.50   47.2    27    1.1    82     1.5     0.0    0.01 
 247    2:40   2.55   47.3    27    0.1    75     0.8     0.0    0.01 
 247    2:50   2.53   47.5    26    0.0     0     0.0     0.0    0.01 
 247    3:00   2.55   47.7    25    0.0     0     0.0     0.0    0.01 
 247    3:10   2.48   47.7    26    0.0     0     0.0     0.0    0.01 
 247    3:20   2.75   47.9    26    0.0     0     0.0     0.0    0.01 
 247    3:30   2.54   48.1    27    0.0     0     0.0     0.0    0.01 
 247    3:40   2.60   47.6    28    0.2    68     0.8     0.0    0.01 
 247    3:50   2.81   47.2    28    0.0    68     0.2     0.0    0.01 
 247    4:00   2.80   47.0    29    0.0     0     0.0     0.0    0.01 
 247    4:10   2.69   46.1    29    0.0     0     0.0     0.0    0.01 
 247    4:20   2.67   45.4    28    0.0     0     0.0     0.0    0.01 
 247    4:30   2.40   45.0    28    0.0     0     0.0     0.0    0.01 
 247    4:40   2.41   43.7    28    0.8     9     1.5     0.0    0.01 
 247    4:50   2.34   43.4    28    0.2     6     0.6     0.0    0.01 
 247    5:00   2.36   43.8    27    0.4   143     1.1     0.0    0.01 
 247    5:10   2.27   43.2    27    0.3   166     0.8     0.0    0.01 
 247    5:20   2.26   43.1    27    0.0     0     0.0     0.0    0.01 
 247    5:30   2.22   43.3    27    0.2   169     0.6     0.0    0.01 
 247    5:40   2.21   44.0    27    0.0   169     0.4     0.0    0.01 
 247    5:50   2.22   44.3    27    0.0     0     0.0     0.0    0.01 
 247    6:00   2.22   44.5    27    0.3   169     0.8     0.0    0.01 
 247    6:10   2.26   44.9    27    0.1   169     0.5     0.0    0.01 
 247    6:20   2.31   45.0    26    0.1   169     0.5     0.0    0.01 
 247    6:30   2.21   45.0    26    0.0     0     0.0     0.0    0.01 
 247    6:40   3.62   45.9    26    0.7   100     1.2     0.0    0.01 
 247    6:50   -8190.00   47.4    26    0.2   116     1.1     0.0    0.01 
 247    7:00   -8190.00   48.5    26    0.0     0     0.0     0.0    0.01 
 247    7:10   -8190.00   49.7    26    0.2   185     0.9     0.0    0.01 
 247    7:20   -8190.00   51.0    26    0.4   185     0.9     0.0    0.01 
 247    7:30   -8190.00   53.1    26    0.0   184     0.6     0.0    0.01 
 247    7:40   -8190.00   55.2    25    0.0   246     0.6     0.0    0.01 
 247    7:50   -8190.00   56.8    25    0.5    41     1.1     0.0    0.01 
 247    8:00   -8190.00   58.0    25    0.5   347     1.0     0.0    0.01 
 247    8:10   -8190.00   59.5    25    0.6    57     1.2     0.0    0.01 
 247    8:20   -8190.00   61.1    25    0.5    84     1.4     0.0    0.01 
 247    8:30   -8190.00   63.1    24    0.3    70     1.2     0.0    0.01 
 247    8:40   -8190.00   63.4    24    0.4    88     1.1     0.0    0.01 
 247    8:50   -8190.00   63.6    24    0.5    95     1.3     0.0    0.01 
 247    9:00   -8190.00   63.1    24    0.8    67     1.4     0.0    0.01 
 247    9:10   -8190.00   64.1    24    0.5    62     1.5     0.0    0.01 
 247    9:20   -8190.00   64.9    23    1.1    24     2.1     0.0    0.01 
 247    9:30   -8190.00   65.9    22    1.1    28     2.2     0.0    0.01 
 247    9:40   -8190.00   66.7    21    1.7   330     2.9     0.0    0.01 
 247    9:50   -8190.00   67.0    20    1.1     0     2.5     0.0    0.01 
 247   10:00   -8190.00   66.4    18    1.9   104     3.7     0.0    0.01 
 247   10:10   -8190.00   66.6    17    1.8   135     3.0     0.0    0.01 
 247   10:20   -8190.00   67.7    16    1.5   178     4.1     0.0    0.01 
 247   10:30   -8190.00   66.2    15    3.1   203     4.9     0.0    0.01 
 247   10:40   -8190.00   65.9    15    1.6   192     3.7     0.0    0.01 
 247   10:50   -8190.00   67.0    16    1.4   195     4.4     0.0    0.01 
 247   11:00   -8190.00   68.7    16    1.9   163     5.7     0.0    0.01 
 247   11:10   -8190.00   68.5    13    2.2   212     4.7     0.0    0.01 
 247   11:20   -8190.00   67.7    10    2.7   215     4.7     0.0    0.01 
 247   11:30   -8190.00   67.8     8    2.8   208     4.8     0.0    0.01 
 247   11:40   -8190.00   68.4     7    2.5   204     4.5     0.0    0.01 
 247   11:50   -8190.00   68.0     6    2.9   157     4.8     0.0    0.01 
 247   12:00   -8190.00   69.0     5    3.1   145     5.4     0.0    0.01 
 247   12:10   -8190.00   68.9     4    3.0   151     4.6     0.0    0.01 
 247   12:20   -8190.00   69.2     3    2.7   160     5.6     0.0    0.01 
 247   12:30   -8190.00   69.4     2    2.3   154     5.3     0.0    0.01 
 247   12:40   -8190.00   69.6     1    3.8   130     6.8     0.0    0.01 
 247   12:50   -8190.00   69.9     1    3.2   149     5.7     0.0    0.01 
 247   13:00   -8190.00   70.1     0    3.2   220     5.2     0.0    0.01 
 247   13:10   -8190.00   70.6     0    2.1   197     5.3     0.0    0.01 
 247   13:20   -8190.00   71.2     1    3.5   188     6.4     0.0    0.01 
 247   13:30   -8190.00   71.3     0    1.8   205     3.9     0.0    0.01 
 247   13:40   -8190.00   72.0     0    1.4   188     3.6     0.0    0.01 
 247   13:50   -8190.00   72.7     0    1.9   229     4.7     0.0    0.01 
 247   14:00   -8190.00   73.1     0    2.8   142     5.4     0.0    0.01 
 247   14:10   -8190.00   73.0    -0    3.0   176     6.1     0.0    0.01 
 247   14:20   -8190.00   73.1    -1    2.7   210     5.5     0.0    0.01 
 247   14:30   -8190.00   73.3    -1    2.7   213     5.3     0.0    0.01 
 247   14:40   -8190.00   72.1    -2    1.5   208     4.3     0.0    0.01 
 247   14:50   -8190.00   72.0    -2    1.3   166     2.6     0.0    0.01 
 247   15:00   -8190.00   71.0    -2    1.7   189     2.5     0.0    0.01 
 247   15:10   -8190.00   71.2    -2    1.2   158     2.3     0.0    0.01 
 247   15:20   -8190.00   71.0    -2    1.5   131     2.4     0.0    0.01 
 247   15:30   -8190.00   70.5    -2    1.9   117     2.9     0.0    0.01 
 247   15:40   -8190.00   70.8    -1    2.3   121     3.5     0.0    0.01 
 247   15:50   -8190.00   71.3    -1    2.1   120     3.8     0.0    0.01 
 247   16:00   -8190.00   69.2    -2    2.0   137     4.8     0.0    0.01 
 247   16:10   -8190.00   68.5    -2    2.0   138     4.7     0.0    0.01 
 247   16:20   -8190.00   65.6    -3    1.2   140     4.1     0.0    0.01 

Return to Hidden Valley, Valles Caldera graphs page.


Western Regional Climate Center,wrcc@dri.edu